St-Hubert, Belgium
Current Conditions -  °F | °C
As of 2:25 PM on Friday 31 Oct 2014 (Local Time) from EBFS Reporting Station
Broken Clouds Broken Clouds  
Wind Chill: 66°   Ceiling: 25000
Heat Index: 66°   Visibility: 6mi
Dew Point: 50°   Wind: 7mph
Humidity: 56%   Direction: 180°S
Pressure: 30.18"   Gusts: NA
Location:  50.03°N, 5.4°E
Report Text: EBFS 311325Z 18006KT 9999 FEW100 BKN250 19/10 Q1022 BLU BLU
Loading
Personal Weather Stations






























Interactive Weather Map New forecast layout! Learn more

10-Day Weather Forecast

Advertisements
Track Severe Weather on mobile